Terminal Aerodrome Forecast
Issued by NWS Knoxville/Tri Cities, TN

Home | Current Version | Previous Version | Text Only | Print | Product List | Glossary On
Versions: 1 2 3 4 5 6 7 8 9 10 11 12
000
FTUS44 KMRX 282321
TAFCHA
TAF
KCHA 282321Z 2900/2924 VRB02KT P6SM FEW060 SCT150
     FM291400 16007KT P6SM BKN045
     FM291800 16008KT P6SM VCTS SCT030CB BKN045=

USA.gov is the U.S. government's official web portal to all federal, state and local government web resources and services.